sensor_id;sensor_type;location;lat;lon;timestamp;temperature;humidity
9466;DHT22;4771;48.726;9.006;2024-02-28T00:01:02;8.70;99.90
9466;DHT22;4771;48.726;9.006;2024-02-28T00:03:29;8.70;99.90
9466;DHT22;4771;48.726;9.006;2024-02-28T00:05:57;8.60;99.90
9466;DHT22;4771;48.726;9.006;2024-02-28T00:08:24;8.50;99.90
9466;DHT22;4771;48.726;9.006;2024-02-28T00:10:51;8.50;99.90
9466;DHT22;4771;48.726;9.006;2024-02-28T00:13:18;8.50;99.90
9466;DHT22;4771;48.726;9.006;2024-02-28T00:15:47;8.40;99.90
9466;DHT22;4771;48.726;9.006;2024-02-28T00:18:14;8.40;99.90
9466;DHT22;4771;48.726;9.006;2024-02-28T00:20:40;8.40;99.90
9466;DHT22;4771;48.726;9.006;2024-02-28T00:23:07;8.40;99.90
9466;DHT22;4771;48.726;9.006;2024-02-28T00:25:34;8.30;99.90
9466;DHT22;4771;48.726;9.006;2024-02-28T00:28:01;8.30;99.90
9466;DHT22;4771;48.726;9.006;2024-02-28T00:30:28;8.20;99.90
9466;DHT22;4771;48.726;9.006;2024-02-28T00:32:57;8.10;99.90
9466;DHT22;4771;48.726;9.006;2024-02-28T00:35:24;8.10;99.90
9466;DHT22;4771;48.726;9.006;2024-02-28T00:37:51;8.10;99.90
9466;DHT22;4771;48.726;9.006;2024-02-28T00:40:18;8.00;99.90
9466;DHT22;4771;48.726;9.006;2024-02-28T00:42:45;8.00;99.90
9466;DHT22;4771;48.726;9.006;2024-02-28T00:45:12;7.90;99.90
9466;DHT22;4771;48.726;9.006;2024-02-28T00:47:39;7.90;99.90
9466;DHT22;4771;48.726;9.006;2024-02-28T00:50:08;7.80;99.90
9466;DHT22;4771;48.726;9.006;2024-02-28T00:52:34;7.80;99.90
9466;DHT22;4771;48.726;9.006;2024-02-28T00:55:01;7.80;99.90
9466;DHT22;4771;48.726;9.006;2024-02-28T00:57:30;7.80;99.90
9466;DHT22;4771;48.726;9.006;2024-02-28T00:59:57;7.90;99.90
9466;DHT22;4771;48.726;9.006;2024-02-28T01:02:24;7.80;99.90
9466;DHT22;4771;48.726;9.006;2024-02-28T01:04:51;7.80;99.90
9466;DHT22;4771;48.726;9.006;2024-02-28T01:07:19;7.80;99.90
9466;DHT22;4771;48.726;9.006;2024-02-28T01:09:46;7.80;99.90
9466;DHT22;4771;48.726;9.006;2024-02-28T01:12:13;7.80;99.90
9466;DHT22;4771;48.726;9.006;2024-02-28T01:14:40;7.80;99.90
9466;DHT22;4771;48.726;9.006;2024-02-28T01:17:07;7.80;99.90
9466;DHT22;4771;48.726;9.006;2024-02-28T01:19:33;7.80;99.90
9466;DHT22;4771;48.726;9.006;2024-02-28T01:22:00;7.80;99.90
9466;DHT22;4771;48.726;9.006;2024-02-28T01:24:28;7.80;99.90
9466;DHT22;4771;48.726;9.006;2024-02-28T01:26:55;7.80;99.90
9466;DHT22;4771;48.726;9.006;2024-02-28T01:29:22;7.80;99.90
9466;DHT22;4771;48.726;9.006;2024-02-28T01:31:49;7.90;99.90
9466;DHT22;4771;48.726;9.006;2024-02-28T01:34:16;7.80;99.90
9466;DHT22;4771;48.726;9.006;2024-02-28T01:36:44;7.80;99.90
9466;DHT22;4771;48.726;9.006;2024-02-28T01:39:11;7.90;99.90
9466;DHT22;4771;48.726;9.006;2024-02-28T01:41:39;7.90;99.90
9466;DHT22;4771;48.726;9.006;2024-02-28T01:44:08;7.90;99.90
9466;DHT22;4771;48.726;9.006;2024-02-28T01:46:35;7.90;99.90
9466;DHT22;4771;48.726;9.006;2024-02-28T01:49:02;8.00;99.90
9466;DHT22;4771;48.726;9.006;2024-02-28T01:51:29;8.00;99.90
9466;DHT22;4771;48.726;9.006;2024-02-28T01:53:56;8.00;99.90
9466;DHT22;4771;48.726;9.006;2024-02-28T01:56:24;8.00;99.90
9466;DHT22;4771;48.726;9.006;2024-02-28T01:58:54;8.00;99.90
9466;DHT22;4771;48.726;9.006;2024-02-28T02:01:21;8.00;99.90
9466;DHT22;4771;48.726;9.006;2024-02-28T02:03:48;8.10;99.90
9466;DHT22;4771;48.726;9.006;2024-02-28T02:06:15;8.00;99.90
9466;DHT22;4771;48.726;9.006;2024-02-28T02:08:42;8.00;99.90
9466;DHT22;4771;48.726;9.006;2024-02-28T02:11:09;8.00;99.90
9466;DHT22;4771;48.726;9.006;2024-02-28T02:13:47;8.00;99.90
9466;DHT22;4771;48.726;9.006;2024-02-28T02:16:16;8.00;99.90
9466;DHT22;4771;48.726;9.006;2024-02-28T02:18:42;8.10;99.90
9466;DHT22;4771;48.726;9.006;2024-02-28T02:21:11;8.10;99.90
9466;DHT22;4771;48.726;9.006;2024-02-28T02:23:40;8.10;99.90
9466;DHT22;4771;48.726;9.006;2024-02-28T02:26:07;8.10;99.90
9466;DHT22;4771;48.726;9.006;2024-02-28T02:28:34;8.10;99.90
9466;DHT22;4771;48.726;9.006;2024-02-28T02:31:01;8.10;99.90
9466;DHT22;4771;48.726;9.006;2024-02-28T02:33:28;8.10;99.90
9466;DHT22;4771;48.726;9.006;2024-02-28T02:35:55;8.10;99.90
9466;DHT22;4771;48.726;9.006;2024-02-28T02:38:22;8.10;99.90
9466;DHT22;4771;48.726;9.006;2024-02-28T02:40:50;8.20;99.90
9466;DHT22;4771;48.726;9.006;2024-02-28T02:43:17;8.10;99.90
9466;DHT22;4771;48.726;9.006;2024-02-28T02:45:44;8.20;99.90
9466;DHT22;4771;48.726;9.006;2024-02-28T02:48:11;8.20;99.90
9466;DHT22;4771;48.726;9.006;2024-02-28T02:50:38;8.20;99.90
9466;DHT22;4771;48.726;9.006;2024-02-28T02:53:09;8.10;99.90
9466;DHT22;4771;48.726;9.006;2024-02-28T02:55:36;8.20;99.90
9466;DHT22;4771;48.726;9.006;2024-02-28T02:58:04;8.20;99.90
9466;DHT22;4771;48.726;9.006;2024-02-28T03:00:31;8.20;99.90
9466;DHT22;4771;48.726;9.006;2024-02-28T03:02:58;8.10;99.90
9466;DHT22;4771;48.726;9.006;2024-02-28T03:05:25;8.10;99.90
9466;DHT22;4771;48.726;9.006;2024-02-28T03:07:52;8.10;99.90
9466;DHT22;4771;48.726;9.006;2024-02-28T03:10:18;8.10;99.90
9466;DHT22;4771;48.726;9.006;2024-02-28T03:12:45;8.10;99.90
9466;DHT22;4771;48.726;9.006;2024-02-28T03:15:14;8.10;99.90
9466;DHT22;4771;48.726;9.006;2024-02-28T03:17:41;8.10;99.90
9466;DHT22;4771;48.726;9.006;2024-02-28T03:20:09;8.10;99.90
9466;DHT22;4771;48.726;9.006;2024-02-28T03:22:37;8.10;99.90
9466;DHT22;4771;48.726;9.006;2024-02-28T03:25:05;8.10;99.90
9466;DHT22;4771;48.726;9.006;2024-02-28T03:27:32;8.00;99.90
9466;DHT22;4771;48.726;9.006;2024-02-28T03:29:59;8.00;99.90
9466;DHT22;4771;48.726;9.006;2024-02-28T03:32:27;8.00;99.90
9466;DHT22;4771;48.726;9.006;2024-02-28T03:34:54;8.00;99.90
9466;DHT22;4771;48.726;9.006;2024-02-28T03:37:21;8.00;99.90
9466;DHT22;4771;48.726;9.006;2024-02-28T03:39:48;8.00;99.90
9466;DHT22;4771;48.726;9.006;2024-02-28T03:42:15;8.10;99.90
9466;DHT22;4771;48.726;9.006;2024-02-28T03:44:41;8.00;99.90
9466;DHT22;4771;48.726;9.006;2024-02-28T03:47:09;8.00;99.90
9466;DHT22;4771;48.726;9.006;2024-02-28T03:49:37;8.10;99.90
9466;DHT22;4771;48.726;9.006;2024-02-28T03:52:04;8.00;99.90
9466;DHT22;4771;48.726;9.006;2024-02-28T03:54:31;8.00;99.90
9466;DHT22;4771;48.726;9.006;2024-02-28T03:56:58;8.00;99.90
9466;DHT22;4771;48.726;9.006;2024-02-28T03:59:25;8.10;99.90
9466;DHT22;4771;48.726;9.006;2024-02-28T04:01:52;8.10;99.90
9466;DHT22;4771;48.726;9.006;2024-02-28T04:04:19;8.10;99.90
9466;DHT22;4771;48.726;9.006;2024-02-28T04:06:47;8.10;99.90
9466;DHT22;4771;48.726;9.006;2024-02-28T04:09:14;8.10;99.90
9466;DHT22;4771;48.726;9.006;2024-02-28T04:11:41;8.10;99.90
9466;DHT22;4771;48.726;9.006;2024-02-28T04:14:08;8.10;99.90
9466;DHT22;4771;48.726;9.006;2024-02-28T04:16:41;8.10;99.90
9466;DHT22;4771;48.726;9.006;2024-02-28T04:19:09;8.10;99.90
9466;DHT22;4771;48.726;9.006;2024-02-28T04:21:36;8.10;99.90
9466;DHT22;4771;48.726;9.006;2024-02-28T04:24:05;8.10;99.90
9466;DHT22;4771;48.726;9.006;2024-02-28T04:26:32;8.10;99.90
9466;DHT22;4771;48.726;9.006;2024-02-28T04:29:00;8.10;99.90
9466;DHT22;4771;48.726;9.006;2024-02-28T04:31:28;8.10;99.90
9466;DHT22;4771;48.726;9.006;2024-02-28T04:33:55;8.10;99.90
9466;DHT22;4771;48.726;9.006;2024-02-28T04:36:22;8.10;99.90
9466;DHT22;4771;48.726;9.006;2024-02-28T04:38:49;8.10;99.90
9466;DHT22;4771;48.726;9.006;2024-02-28T04:41:17;8.10;99.90
9466;DHT22;4771;48.726;9.006;2024-02-28T04:43:44;8.10;99.90
9466;DHT22;4771;48.726;9.006;2024-02-28T04:46:10;8.00;99.90
9466;DHT22;4771;48.726;9.006;2024-02-28T04:48:37;8.10;99.90
9466;DHT22;4771;48.726;9.006;2024-02-28T04:51:04;8.10;99.90
9466;DHT22;4771;48.726;9.006;2024-02-28T04:53:31;8.10;99.90
9466;DHT22;4771;48.726;9.006;2024-02-28T04:55:58;8.00;99.90
9466;DHT22;4771;48.726;9.006;2024-02-28T04:58:26;8.00;99.90
9466;DHT22;4771;48.726;9.006;2024-02-28T05:00:53;8.00;99.90
9466;DHT22;4771;48.726;9.006;2024-02-28T05:03:20;8.00;99.90
9466;DHT22;4771;48.726;9.006;2024-02-28T05:05:48;8.00;99.90
9466;DHT22;4771;48.726;9.006;2024-02-28T05:08:14;8.00;99.90
9466;DHT22;4771;48.726;9.006;2024-02-28T05:10:41;8.00;99.90
9466;DHT22;4771;48.726;9.006;2024-02-28T05:13:08;8.00;99.90
9466;DHT22;4771;48.726;9.006;2024-02-28T05:15:37;8.00;99.90
9466;DHT22;4771;48.726;9.006;2024-02-28T05:18:04;8.00;99.90
9466;DHT22;4771;48.726;9.006;2024-02-28T05:20:31;8.00;99.90
9466;DHT22;4771;48.726;9.006;2024-02-28T05:22:58;7.70;99.90
9466;DHT22;4771;48.726;9.006;2024-02-28T05:25:24;7.90;99.90
9466;DHT22;4771;48.726;9.006;2024-02-28T05:27:51;7.90;99.90
9466;DHT22;4771;48.726;9.006;2024-02-28T05:30:18;7.90;99.90
9466;DHT22;4771;48.726;9.006;2024-02-28T05:32:47;7.80;99.90
9466;DHT22;4771;48.726;9.006;2024-02-28T05:35:14;7.80;99.90
9466;DHT22;4771;48.726;9.006;2024-02-28T05:37:41;7.80;99.90
9466;DHT22;4771;48.726;9.006;2024-02-28T05:40:08;7.80;99.90
9466;DHT22;4771;48.726;9.006;2024-02-28T05:42:38;7.80;99.90
9466;DHT22;4771;48.726;9.006;2024-02-28T05:45:06;7.80;99.90
9466;DHT22;4771;48.726;9.006;2024-02-28T05:47:33;7.80;99.90
9466;DHT22;4771;48.726;9.006;2024-02-28T05:50:01;7.70;99.90
9466;DHT22;4771;48.726;9.006;2024-02-28T05:52:28;7.80;99.90
9466;DHT22;4771;48.726;9.006;2024-02-28T05:54:55;7.70;99.90
9466;DHT22;4771;48.726;9.006;2024-02-28T05:57:22;7.80;99.90
9466;DHT22;4771;48.726;9.006;2024-02-28T05:59:49;7.80;99.90
9466;DHT22;4771;48.726;9.006;2024-02-28T06:02:16;7.80;99.90
9466;DHT22;4771;48.726;9.006;2024-02-28T06:04:42;7.80;99.90
9466;DHT22;4771;48.726;9.006;2024-02-28T06:07:11;7.80;99.90
9466;DHT22;4771;48.726;9.006;2024-02-28T06:09:37;7.80;99.90
9466;DHT22;4771;48.726;9.006;2024-02-28T06:12:05;7.80;99.90
9466;DHT22;4771;48.726;9.006;2024-02-28T06:14:32;7.80;99.90
9466;DHT22;4771;48.726;9.006;2024-02-28T06:16:59;7.80;99.90
9466;DHT22;4771;48.726;9.006;2024-02-28T06:19:25;7.80;99.90
9466;DHT22;4771;48.726;9.006;2024-02-28T06:21:52;7.80;99.90
9466;DHT22;4771;48.726;9.006;2024-02-28T06:24:20;7.80;99.90
9466;DHT22;4771;48.726;9.006;2024-02-28T06:26:48;7.80;99.90
9466;DHT22;4771;48.726;9.006;2024-02-28T06:29:15;7.70;99.90
9466;DHT22;4771;48.726;9.006;2024-02-28T06:31:42;7.70;99.90
9466;DHT22;4771;48.726;9.006;2024-02-28T06:34:09;7.70;99.90
9466;DHT22;4771;48.726;9.006;2024-02-28T06:36:36;7.80;99.90
9466;DHT22;4771;48.726;9.006;2024-02-28T06:39:03;7.70;99.90
9466;DHT22;4771;48.726;9.006;2024-02-28T06:41:31;7.80;99.90
9466;DHT22;4771;48.726;9.006;2024-02-28T06:43:59;7.70;99.90
9466;DHT22;4771;48.726;9.006;2024-02-28T06:46:26;7.70;99.90
9466;DHT22;4771;48.726;9.006;2024-02-28T06:48:53;7.70;99.90
9466;DHT22;4771;48.726;9.006;2024-02-28T06:51:20;7.70;99.90
9466;DHT22;4771;48.726;9.006;2024-02-28T06:53:46;7.80;99.90
9466;DHT22;4771;48.726;9.006;2024-02-28T06:56:13;7.70;99.90
9466;DHT22;4771;48.726;9.006;2024-02-28T06:58:42;7.80;99.90
9466;DHT22;4771;48.726;9.006;2024-02-28T07:01:08;7.70;99.90
9466;DHT22;4771;48.726;9.006;2024-02-28T07:03:35;7.70;99.90
9466;DHT22;4771;48.726;9.006;2024-02-28T07:06:02;7.70;99.90
9466;DHT22;4771;48.726;9.006;2024-02-28T07:08:31;7.70;99.90
9466;DHT22;4771;48.726;9.006;2024-02-28T07:10:58;7.70;99.90
9466;DHT22;4771;48.726;9.006;2024-02-28T07:13:25;7.60;99.90
9466;DHT22;4771;48.726;9.006;2024-02-28T07:15:54;7.60;99.90
9466;DHT22;4771;48.726;9.006;2024-02-28T07:18:23;7.20;99.90
9466;DHT22;4771;48.726;9.006;2024-02-28T07:20:51;7.60;99.90
9466;DHT22;4771;48.726;9.006;2024-02-28T07:23:18;7.70;99.90
9466;DHT22;4771;48.726;9.006;2024-02-28T07:25:45;7.80;99.90
9466;DHT22;4771;48.726;9.006;2024-02-28T07:28:12;7.70;99.90
9466;DHT22;4771;48.726;9.006;2024-02-28T07:30:38;7.70;99.90
9466;DHT22;4771;48.726;9.006;2024-02-28T07:33:07;7.80;99.90
9466;DHT22;4771;48.726;9.006;2024-02-28T07:35:44;7.80;99.90
9466;DHT22;4771;48.726;9.006;2024-02-28T07:38:11;7.70;99.90
9466;DHT22;4771;48.726;9.006;2024-02-28T07:40:37;7.80;99.90
9466;DHT22;4771;48.726;9.006;2024-02-28T07:43:04;7.70;99.90
9466;DHT22;4771;48.726;9.006;2024-02-28T07:45:31;7.70;99.90
9466;DHT22;4771;48.726;9.006;2024-02-28T07:47:58;7.70;99.90
9466;DHT22;4771;48.726;9.006;2024-02-28T07:50:26;7.70;99.90
9466;DHT22;4771;48.726;9.006;2024-02-28T07:52:54;7.70;99.90
9466;DHT22;4771;48.726;9.006;2024-02-28T07:55:21;7.80;99.90
9466;DHT22;4771;48.726;9.006;2024-02-28T07:57:51;7.80;99.90
9466;DHT22;4771;48.726;9.006;2024-02-28T08:00:18;7.80;99.90
9466;DHT22;4771;48.726;9.006;2024-02-28T08:02:45;7.80;99.90
9466;DHT22;4771;48.726;9.006;2024-02-28T08:05:13;7.80;99.90
9466;DHT22;4771;48.726;9.006;2024-02-28T08:07:41;7.80;99.90
9466;DHT22;4771;48.726;9.006;2024-02-28T08:10:09;7.80;99.90
9466;DHT22;4771;48.726;9.006;2024-02-28T08:12:37;7.80;99.90
9466;DHT22;4771;48.726;9.006;2024-02-28T08:15:04;7.40;99.90
9466;DHT22;4771;48.726;9.006;2024-02-28T08:17:32;7.90;99.90
9466;DHT22;4771;48.726;9.006;2024-02-28T08:19:59;7.90;99.90
9466;DHT22;4771;48.726;9.006;2024-02-28T08:22:26;7.90;99.90
9466;DHT22;4771;48.726;9.006;2024-02-28T08:24:54;7.80;99.90
9466;DHT22;4771;48.726;9.006;2024-02-28T08:27:21;7.80;99.90
9466;DHT22;4771;48.726;9.006;2024-02-28T08:29:49;7.80;99.90
9466;DHT22;4771;48.726;9.006;2024-02-28T08:32:18;7.80;99.90
9466;DHT22;4771;48.726;9.006;2024-02-28T08:34:45;7.90;99.90
9466;DHT22;4771;48.726;9.006;2024-02-28T08:37:12;7.90;99.90
9466;DHT22;4771;48.726;9.006;2024-02-28T08:39:39;8.00;99.90
9466;DHT22;4771;48.726;9.006;2024-02-28T08:42:07;8.00;99.90
9466;DHT22;4771;48.726;9.006;2024-02-28T08:44:34;7.90;99.90
9466;DHT22;4771;48.726;9.006;2024-02-28T08:47:01;8.60;99.90
9466;DHT22;4771;48.726;9.006;2024-02-28T08:49:28;8.00;99.90
9466;DHT22;4771;48.726;9.006;2024-02-28T08:51:56;7.90;99.90
9466;DHT22;4771;48.726;9.006;2024-02-28T08:54:23;8.00;99.90
9466;DHT22;4771;48.726;9.006;2024-02-28T08:56:51;8.00;99.90
9466;DHT22;4771;48.726;9.006;2024-02-28T08:59:19;8.00;99.90
9466;DHT22;4771;48.726;9.006;2024-02-28T09:01:47;8.00;99.90
9466;DHT22;4771;48.726;9.006;2024-02-28T09:04:14;8.00;99.90
9466;DHT22;4771;48.726;9.006;2024-02-28T09:06:41;7.90;99.90
9466;DHT22;4771;48.726;9.006;2024-02-28T09:09:08;7.90;99.90
9466;DHT22;4771;48.726;9.006;2024-02-28T09:11:35;7.90;99.90
9466;DHT22;4771;48.726;9.006;2024-02-28T09:14:02;7.80;99.90
9466;DHT22;4771;48.726;9.006;2024-02-28T09:16:30;7.90;99.90
9466;DHT22;4771;48.726;9.006;2024-02-28T09:18:57;7.90;99.90
9466;DHT22;4771;48.726;9.006;2024-02-28T09:21:24;7.90;99.90
9466;DHT22;4771;48.726;9.006;2024-02-28T09:23:51;7.90;99.90
9466;DHT22;4771;48.726;9.006;2024-02-28T09:26:18;7.90;99.90
9466;DHT22;4771;48.726;9.006;2024-02-28T09:28:45;7.90;99.90
9466;DHT22;4771;48.726;9.006;2024-02-28T09:31:11;7.90;99.90
9466;DHT22;4771;48.726;9.006;2024-02-28T09:33:42;8.00;99.90
9466;DHT22;4771;48.726;9.006;2024-02-28T09:36:10;8.00;99.90
9466;DHT22;4771;48.726;9.006;2024-02-28T09:38:37;8.00;99.90
9466;DHT22;4771;48.726;9.006;2024-02-28T09:41:04;8.00;99.90
9466;DHT22;4771;48.726;9.006;2024-02-28T09:43:31;8.00;99.90
9466;DHT22;4771;48.726;9.006;2024-02-28T09:46:04;8.00;99.90
9466;DHT22;4771;48.726;9.006;2024-02-28T09:48:31;8.00;99.90
9466;DHT22;4771;48.726;9.006;2024-02-28T09:51:00;8.10;99.90
9466;DHT22;4771;48.726;9.006;2024-02-28T09:53:27;8.10;99.90
9466;DHT22;4771;48.726;9.006;2024-02-28T09:55:54;8.00;99.90
9466;DHT22;4771;48.726;9.006;2024-02-28T09:58:20;8.10;99.90
9466;DHT22;4771;48.726;9.006;2024-02-28T10:00:48;8.20;99.90
9466;DHT22;4771;48.726;9.006;2024-02-28T10:03:18;8.10;99.90
9466;DHT22;4771;48.726;9.006;2024-02-28T10:05:45;8.20;99.90
9466;DHT22;4771;48.726;9.006;2024-02-28T10:08:14;8.20;99.90
9466;DHT22;4771;48.726;9.006;2024-02-28T10:10:45;8.20;99.90
9466;DHT22;4771;48.726;9.006;2024-02-28T10:13:12;8.20;99.90
9466;DHT22;4771;48.726;9.006;2024-02-28T10:15:40;8.20;99.90
9466;DHT22;4771;48.726;9.006;2024-02-28T10:18:07;8.20;99.90
9466;DHT22;4771;48.726;9.006;2024-02-28T10:20:34;8.20;99.90
9466;DHT22;4771;48.726;9.006;2024-02-28T10:23:04;8.20;99.90
9466;DHT22;4771;48.726;9.006;2024-02-28T10:25:32;8.20;99.90
9466;DHT22;4771;48.726;9.006;2024-02-28T10:28:03;8.20;99.90
9466;DHT22;4771;48.726;9.006;2024-02-28T10:30:30;8.20;99.90
9466;DHT22;4771;48.726;9.006;2024-02-28T10:32:57;8.10;99.90
9466;DHT22;4771;48.726;9.006;2024-02-28T10:35:25;8.10;99.90
9466;DHT22;4771;48.726;9.006;2024-02-28T10:37:52;8.10;99.90
9466;DHT22;4771;48.726;9.006;2024-02-28T10:40:20;8.10;99.90
9466;DHT22;4771;48.726;9.006;2024-02-28T10:42:49;8.10;99.90
9466;DHT22;4771;48.726;9.006;2024-02-28T10:45:17;8.00;99.90
9466;DHT22;4771;48.726;9.006;2024-02-28T10:47:45;8.00;99.90
9466;DHT22;4771;48.726;9.006;2024-02-28T10:50:13;8.10;99.90
9466;DHT22;4771;48.726;9.006;2024-02-28T10:52:44;8.10;99.90
9466;DHT22;4771;48.726;9.006;2024-02-28T10:55:12;8.10;99.90
9466;DHT22;4771;48.726;9.006;2024-02-28T10:57:41;8.10;99.90
9466;DHT22;4771;48.726;9.006;2024-02-28T11:00:11;8.20;99.90
9466;DHT22;4771;48.726;9.006;2024-02-28T11:02:41;8.20;99.90
9466;DHT22;4771;48.726;9.006;2024-02-28T11:05:09;8.30;99.90
9466;DHT22;4771;48.726;9.006;2024-02-28T11:07:35;8.30;99.90
9466;DHT22;4771;48.726;9.006;2024-02-28T11:10:08;8.20;99.90
9466;DHT22;4771;48.726;9.006;2024-02-28T11:12:36;8.20;99.90
9466;DHT22;4771;48.726;9.006;2024-02-28T11:15:04;8.20;99.90
9466;DHT22;4771;48.726;9.006;2024-02-28T11:17:33;8.30;99.90
9466;DHT22;4771;48.726;9.006;2024-02-28T11:20:10;8.30;99.90
9466;DHT22;4771;48.726;9.006;2024-02-28T11:22:37;8.30;99.90
9466;DHT22;4771;48.726;9.006;2024-02-28T11:25:05;8.30;99.90
9466;DHT22;4771;48.726;9.006;2024-02-28T11:27:32;8.30;99.90
9466;DHT22;4771;48.726;9.006;2024-02-28T11:29:59;8.30;99.90
9466;DHT22;4771;48.726;9.006;2024-02-28T11:32:29;8.40;99.90
9466;DHT22;4771;48.726;9.006;2024-02-28T11:35:00;8.40;99.90
9466;DHT22;4771;48.726;9.006;2024-02-28T11:37:28;8.50;99.90
9466;DHT22;4771;48.726;9.006;2024-02-28T11:39:55;8.50;99.90
9466;DHT22;4771;48.726;9.006;2024-02-28T11:42:22;9.00;99.90
9466;DHT22;4771;48.726;9.006;2024-02-28T11:44:53;8.60;99.90
9466;DHT22;4771;48.726;9.006;2024-02-28T11:47:22;8.60;99.90
9466;DHT22;4771;48.726;9.006;2024-02-28T11:49:49;8.70;99.90
9466;DHT22;4771;48.726;9.006;2024-02-28T11:52:17;8.70;99.90
9466;DHT22;4771;48.726;9.006;2024-02-28T11:54:45;8.80;99.90
9466;DHT22;4771;48.726;9.006;2024-02-28T11:57:12;8.80;99.90
9466;DHT22;4771;48.726;9.006;2024-02-28T11:59:43;8.70;99.90
9466;DHT22;4771;48.726;9.006;2024-02-28T12:02:13;8.70;99.90
9466;DHT22;4771;48.726;9.006;2024-02-28T12:04:42;8.80;99.90
9466;DHT22;4771;48.726;9.006;2024-02-28T12:07:09;8.90;99.90
9466;DHT22;4771;48.726;9.006;2024-02-28T12:09:37;8.80;99.90
9466;DHT22;4771;48.726;9.006;2024-02-28T12:12:07;8.80;99.90
9466;DHT22;4771;48.726;9.006;2024-02-28T12:14:36;8.80;99.90
9466;DHT22;4771;48.726;9.006;2024-02-28T12:17:04;8.80;99.90
9466;DHT22;4771;48.726;9.006;2024-02-28T12:19:31;8.70;99.90
9466;DHT22;4771;48.726;9.006;2024-02-28T12:21:58;8.70;99.90
9466;DHT22;4771;48.726;9.006;2024-02-28T12:24:25;8.70;99.90
9466;DHT22;4771;48.726;9.006;2024-02-28T12:26:53;8.70;99.90
9466;DHT22;4771;48.726;9.006;2024-02-28T12:29:20;8.70;99.90
9466;DHT22;4771;48.726;9.006;2024-02-28T12:31:46;8.80;99.90
9466;DHT22;4771;48.726;9.006;2024-02-28T12:34:13;8.80;99.90
9466;DHT22;4771;48.726;9.006;2024-02-28T12:36:41;8.80;99.90
9466;DHT22;4771;48.726;9.006;2024-02-28T12:39:08;8.80;99.90
9466;DHT22;4771;48.726;9.006;2024-02-28T12:41:37;8.90;99.90
9466;DHT22;4771;48.726;9.006;2024-02-28T12:44:05;9.10;99.90
9466;DHT22;4771;48.726;9.006;2024-02-28T12:46:33;8.90;99.90
9466;DHT22;4771;48.726;9.006;2024-02-28T12:49:00;8.80;99.90
9466;DHT22;4771;48.726;9.006;2024-02-28T12:51:38;8.80;99.90
9466;DHT22;4771;48.726;9.006;2024-02-28T12:54:06;8.80;99.90
9466;DHT22;4771;48.726;9.006;2024-02-28T12:56:33;8.80;99.90
9466;DHT22;4771;48.726;9.006;2024-02-28T12:59:00;8.80;99.90
9466;DHT22;4771;48.726;9.006;2024-02-28T13:01:29;8.70;99.90
9466;DHT22;4771;48.726;9.006;2024-02-28T13:03:56;8.70;99.90
9466;DHT22;4771;48.726;9.006;2024-02-28T13:06:23;8.70;99.90
9466;DHT22;4771;48.726;9.006;2024-02-28T13:08:50;8.70;99.90
9466;DHT22;4771;48.726;9.006;2024-02-28T13:11:18;8.70;99.90
9466;DHT22;4771;48.726;9.006;2024-02-28T13:13:46;8.80;99.90
9466;DHT22;4771;48.726;9.006;2024-02-28T13:16:13;8.80;99.90
9466;DHT22;4771;48.726;9.006;2024-02-28T13:18:41;8.80;99.90
9466;DHT22;4771;48.726;9.006;2024-02-28T13:21:08;8.70;99.90
9466;DHT22;4771;48.726;9.006;2024-02-28T13:23:35;8.60;99.90
9466;DHT22;4771;48.726;9.006;2024-02-28T13:26:03;8.60;99.90
9466;DHT22;4771;48.726;9.006;2024-02-28T13:28:30;8.50;99.90
9466;DHT22;4771;48.726;9.006;2024-02-28T13:30:57;8.50;99.90
9466;DHT22;4771;48.726;9.006;2024-02-28T13:33:25;8.60;99.90
9466;DHT22;4771;48.726;9.006;2024-02-28T13:35:53;8.60;99.90
9466;DHT22;4771;48.726;9.006;2024-02-28T13:38:21;8.50;99.90
9466;DHT22;4771;48.726;9.006;2024-02-28T13:40:48;8.50;99.90
9466;DHT22;4771;48.726;9.006;2024-02-28T13:43:15;8.50;99.90
9466;DHT22;4771;48.726;9.006;2024-02-28T13:45:46;8.40;99.90
9466;DHT22;4771;48.726;9.006;2024-02-28T13:48:16;8.40;99.90
9466;DHT22;4771;48.726;9.006;2024-02-28T13:50:43;8.40;99.90
9466;DHT22;4771;48.726;9.006;2024-02-28T13:53:12;8.40;99.90
9466;DHT22;4771;48.726;9.006;2024-02-28T13:55:39;8.40;99.90
9466;DHT22;4771;48.726;9.006;2024-02-28T13:58:06;8.40;99.90
9466;DHT22;4771;48.726;9.006;2024-02-28T14:00:34;8.40;99.90
9466;DHT22;4771;48.726;9.006;2024-02-28T14:03:01;8.40;99.90
9466;DHT22;4771;48.726;9.006;2024-02-28T14:05:28;8.40;99.90
9466;DHT22;4771;48.726;9.006;2024-02-28T14:07:55;8.50;99.90
9466;DHT22;4771;48.726;9.006;2024-02-28T14:10:24;8.50;99.90
9466;DHT22;4771;48.726;9.006;2024-02-28T14:12:51;8.60;99.90
9466;DHT22;4771;48.726;9.006;2024-02-28T14:15:19;8.60;99.90
9466;DHT22;4771;48.726;9.006;2024-02-28T14:17:46;8.50;99.90
9466;DHT22;4771;48.726;9.006;2024-02-28T14:20:13;8.50;99.90
9466;DHT22;4771;48.726;9.006;2024-02-28T14:22:40;8.40;99.90
9466;DHT22;4771;48.726;9.006;2024-02-28T14:25:09;8.50;99.90
9466;DHT22;4771;48.726;9.006;2024-02-28T14:27:41;8.50;99.90
9466;DHT22;4771;48.726;9.006;2024-02-28T14:30:09;8.40;99.90
9466;DHT22;4771;48.726;9.006;2024-02-28T14:32:36;8.40;99.90
9466;DHT22;4771;48.726;9.006;2024-02-28T14:35:03;8.40;99.90
9466;DHT22;4771;48.726;9.006;2024-02-28T14:37:31;8.40;99.90
9466;DHT22;4771;48.726;9.006;2024-02-28T14:39:59;8.40;99.90
9466;DHT22;4771;48.726;9.006;2024-02-28T14:42:27;8.30;99.90
9466;DHT22;4771;48.726;9.006;2024-02-28T14:44:55;8.30;99.90
9466;DHT22;4771;48.726;9.006;2024-02-28T14:47:22;8.30;99.90
9466;DHT22;4771;48.726;9.006;2024-02-28T14:49:49;8.40;99.90
9466;DHT22;4771;48.726;9.006;2024-02-28T14:52:15;8.30;99.90
9466;DHT22;4771;48.726;9.006;2024-02-28T14:54:42;8.40;99.90
9466;DHT22;4771;48.726;9.006;2024-02-28T14:57:10;8.40;99.90
9466;DHT22;4771;48.726;9.006;2024-02-28T14:59:37;8.40;99.90
9466;DHT22;4771;48.726;9.006;2024-02-28T15:02:06;8.40;99.90
9466;DHT22;4771;48.726;9.006;2024-02-28T15:04:33;8.50;99.90
9466;DHT22;4771;48.726;9.006;2024-02-28T15:06:59;8.50;99.90
9466;DHT22;4771;48.726;9.006;2024-02-28T15:09:28;8.50;99.90
9466;DHT22;4771;48.726;9.006;2024-02-28T15:11:55;8.50;99.90
9466;DHT22;4771;48.726;9.006;2024-02-28T15:14:22;8.50;99.90
9466;DHT22;4771;48.726;9.006;2024-02-28T15:16:48;8.40;99.90
9466;DHT22;4771;48.726;9.006;2024-02-28T15:19:18;8.40;99.90
9466;DHT22;4771;48.726;9.006;2024-02-28T15:21:46;8.40;99.90
9466;DHT22;4771;48.726;9.006;2024-02-28T15:24:12;8.40;99.90
9466;DHT22;4771;48.726;9.006;2024-02-28T15:26:41;8.40;99.90
9466;DHT22;4771;48.726;9.006;2024-02-28T15:29:09;8.40;99.90
9466;DHT22;4771;48.726;9.006;2024-02-28T15:31:37;8.40;99.90
9466;DHT22;4771;48.726;9.006;2024-02-28T15:34:04;8.40;99.90
9466;DHT22;4771;48.726;9.006;2024-02-28T15:36:32;8.30;99.90
9466;DHT22;4771;48.726;9.006;2024-02-28T15:38:59;8.30;99.90
9466;DHT22;4771;48.726;9.006;2024-02-28T15:41:26;8.30;99.90
9466;DHT22;4771;48.726;9.006;2024-02-28T15:43:53;8.30;99.90
9466;DHT22;4771;48.726;9.006;2024-02-28T15:46:21;8.30;99.90
9466;DHT22;4771;48.726;9.006;2024-02-28T15:48:48;8.10;99.90
9466;DHT22;4771;48.726;9.006;2024-02-28T15:51:15;8.30;99.90
9466;DHT22;4771;48.726;9.006;2024-02-28T15:53:43;8.30;99.90
9466;DHT22;4771;48.726;9.006;2024-02-28T15:56:11;8.30;99.90
9466;DHT22;4771;48.726;9.006;2024-02-28T15:58:37;8.30;99.90
9466;DHT22;4771;48.726;9.006;2024-02-28T16:01:05;8.20;99.90
9466;DHT22;4771;48.726;9.006;2024-02-28T16:03:32;8.20;99.90
9466;DHT22;4771;48.726;9.006;2024-02-28T16:05:59;8.20;99.90
9466;DHT22;4771;48.726;9.006;2024-02-28T16:08:26;8.10;99.90
9466;DHT22;4771;48.726;9.006;2024-02-28T16:10:54;8.10;99.90
9466;DHT22;4771;48.726;9.006;2024-02-28T16:13:21;8.10;99.90
9466;DHT22;4771;48.726;9.006;2024-02-28T16:15:48;8.10;99.90
9466;DHT22;4771;48.726;9.006;2024-02-28T16:18:15;8.00;99.90